sensor_id;sensor_type;location;lat;lon;timestamp;temperature;humidity
3850;DHT22;1940;51.052;13.678;2023-02-18T00:00:55;9.60;89.10
3850;DHT22;1940;51.052;13.678;2023-02-18T00:03:23;9.70;89.10
3850;DHT22;1940;51.052;13.678;2023-02-18T00:05:48;9.70;89.30
3850;DHT22;1940;51.052;13.678;2023-02-18T00:08:14;9.80;89.30
3850;DHT22;1940;51.052;13.678;2023-02-18T00:10:40;9.70;89.80
3850;DHT22;1940;51.052;13.678;2023-02-18T00:13:06;9.70;90.00
3850;DHT22;1940;51.052;13.678;2023-02-18T00:15:34;9.70;90.20
3850;DHT22;1940;51.052;13.678;2023-02-18T00:18:00;9.70;90.40
3850;DHT22;1940;51.052;13.678;2023-02-18T00:20:26;9.70;90.30
3850;DHT22;1940;51.052;13.678;2023-02-18T00:22:51;9.70;90.50
3850;DHT22;1940;51.052;13.678;2023-02-18T00:25:16;9.60;90.80
3850;DHT22;1940;51.052;13.678;2023-02-18T00:27:42;9.60;91.00
3850;DHT22;1940;51.052;13.678;2023-02-18T00:30:08;9.70;91.40
3850;DHT22;1940;51.052;13.678;2023-02-18T00:32:34;9.70;91.40
3850;DHT22;1940;51.052;13.678;2023-02-18T00:35:00;9.70;91.60
3850;DHT22;1940;51.052;13.678;2023-02-18T00:37:25;9.80;91.70
3850;DHT22;1940;51.052;13.678;2023-02-18T00:39:51;9.80;91.70
3850;DHT22;1940;51.052;13.678;2023-02-18T00:42:16;9.70;92.10
3850;DHT22;1940;51.052;13.678;2023-02-18T00:44:42;9.60;92.60
3850;DHT22;1940;51.052;13.678;2023-02-18T00:47:07;9.60;92.80
3850;DHT22;1940;51.052;13.678;2023-02-18T00:49:33;9.60;92.80
3850;DHT22;1940;51.052;13.678;2023-02-18T00:51:58;9.60;92.80
3850;DHT22;1940;51.052;13.678;2023-02-18T00:54:24;9.70;92.70
3850;DHT22;1940;51.052;13.678;2023-02-18T00:56:49;9.60;92.90
3850;DHT22;1940;51.052;13.678;2023-02-18T00:59:15;9.60;92.90
3850;DHT22;1940;51.052;13.678;2023-02-18T01:01:40;9.60;93.20
3850;DHT22;1940;51.052;13.678;2023-02-18T01:04:06;9.60;93.10
3850;DHT22;1940;51.052;13.678;2023-02-18T01:06:32;9.60;93.30
3850;DHT22;1940;51.052;13.678;2023-02-18T01:08:57;9.60;93.50
3850;DHT22;1940;51.052;13.678;2023-02-18T01:11:23;9.60;93.40
3850;DHT22;1940;51.052;13.678;2023-02-18T01:13:48;9.60;93.10
3850;DHT22;1940;51.052;13.678;2023-02-18T01:16:14;9.60;92.80
3850;DHT22;1940;51.052;13.678;2023-02-18T01:18:39;9.60;92.90
3850;DHT22;1940;51.052;13.678;2023-02-18T01:21:06;9.60;92.50
3850;DHT22;1940;51.052;13.678;2023-02-18T01:23:33;9.60;92.30
3850;DHT22;1940;51.052;13.678;2023-02-18T01:25:59;9.60;91.60
3850;DHT22;1940;51.052;13.678;2023-02-18T01:28:25;9.70;90.90
3850;DHT22;1940;51.052;13.678;2023-02-18T01:30:52;9.60;90.80
3850;DHT22;1940;51.052;13.678;2023-02-18T01:33:18;9.60;90.50
3850;DHT22;1940;51.052;13.678;2023-02-18T01:35:44;9.60;89.60
3850;DHT22;1940;51.052;13.678;2023-02-18T01:38:10;9.60;88.30
3850;DHT22;1940;51.052;13.678;2023-02-18T01:40:42;9.60;87.80
3850;DHT22;1940;51.052;13.678;2023-02-18T01:43:10;9.60;87.60
3850;DHT22;1940;51.052;13.678;2023-02-18T01:45:44;9.50;87.30
3850;DHT22;1940;51.052;13.678;2023-02-18T01:48:17;9.40;87.00
3850;DHT22;1940;51.052;13.678;2023-02-18T01:50:59;9.40;86.80
3850;DHT22;1940;51.052;13.678;2023-02-18T01:53:31;9.30;86.50
3850;DHT22;1940;51.052;13.678;2023-02-18T01:55:58;9.20;86.10
3850;DHT22;1940;51.052;13.678;2023-02-18T01:58:24;9.20;85.50
3850;DHT22;1940;51.052;13.678;2023-02-18T02:00:50;9.20;85.00
3850;DHT22;1940;51.052;13.678;2023-02-18T02:03:16;9.20;84.50
3850;DHT22;1940;51.052;13.678;2023-02-18T02:05:41;9.20;83.60
3850;DHT22;1940;51.052;13.678;2023-02-18T02:08:07;9.20;83.30
3850;DHT22;1940;51.052;13.678;2023-02-18T02:11:01;9.20;82.70
3850;DHT22;1940;51.052;13.678;2023-02-18T02:13:58;9.20;83.10
3850;DHT22;1940;51.052;13.678;2023-02-18T02:16:39;9.10;82.90
3850;DHT22;1940;51.052;13.678;2023-02-18T02:19:16;9.10;83.10
3850;DHT22;1940;51.052;13.678;2023-02-18T02:24:57;9.10;83.60
3850;DHT22;1940;51.052;13.678;2023-02-18T02:30:22;9.00;83.80
3850;DHT22;1940;51.052;13.678;2023-02-18T02:35:56;9.00;84.00
3850;DHT22;1940;51.052;13.678;2023-02-18T02:38:29;8.90;84.30
3850;DHT22;1940;51.052;13.678;2023-02-18T02:44:04;9.00;84.30
3850;DHT22;1940;51.052;13.678;2023-02-18T02:46:40;9.00;84.30
3850;DHT22;1940;51.052;13.678;2023-02-18T02:52:11;9.00;84.10
3850;DHT22;1940;51.052;13.678;2023-02-18T02:54:37;8.90;84.20
3850;DHT22;1940;51.052;13.678;2023-02-18T02:59:39;9.00;83.70
3850;DHT22;1940;51.052;13.678;2023-02-18T03:02:28;9.00;82.70
3850;DHT22;1940;51.052;13.678;2023-02-18T03:05:18;9.00;82.50
3850;DHT22;1940;51.052;13.678;2023-02-18T03:07:50;9.00;81.20
3850;DHT22;1940;51.052;13.678;2023-02-18T03:16:10;9.10;80.80
3850;DHT22;1940;51.052;13.678;2023-02-18T03:18:40;9.00;81.00
3850;DHT22;1940;51.052;13.678;2023-02-18T03:21:34;9.00;80.90
3850;DHT22;1940;51.052;13.678;2023-02-18T03:24:08;9.10;80.50
3850;DHT22;1940;51.052;13.678;2023-02-18T03:26:41;9.10;80.60
3850;DHT22;1940;51.052;13.678;2023-02-18T03:29:08;9.10;80.70
3850;DHT22;1940;51.052;13.678;2023-02-18T03:31:35;9.10;80.70
3850;DHT22;1940;51.052;13.678;2023-02-18T03:34:06;9.00;80.80
3850;DHT22;1940;51.052;13.678;2023-02-18T03:36:33;9.00;81.10
3850;DHT22;1940;51.052;13.678;2023-02-18T03:39:18;9.00;81.20
3850;DHT22;1940;51.052;13.678;2023-02-18T03:41:44;9.00;81.10
3850;DHT22;1940;51.052;13.678;2023-02-18T03:44:11;9.10;81.10
3850;DHT22;1940;51.052;13.678;2023-02-18T03:46:39;9.00;81.40
3850;DHT22;1940;51.052;13.678;2023-02-18T03:49:05;8.90;81.90
3850;DHT22;1940;51.052;13.678;2023-02-18T03:51:31;9.00;81.90
3850;DHT22;1940;51.052;13.678;2023-02-18T03:53:56;9.00;82.00
3850;DHT22;1940;51.052;13.678;2023-02-18T03:56:22;9.00;82.00
3850;DHT22;1940;51.052;13.678;2023-02-18T03:58:47;9.00;82.20
3850;DHT22;1940;51.052;13.678;2023-02-18T04:01:13;9.00;82.00
3850;DHT22;1940;51.052;13.678;2023-02-18T04:03:39;9.10;81.70
3850;DHT22;1940;51.052;13.678;2023-02-18T04:06:05;9.10;81.70
3850;DHT22;1940;51.052;13.678;2023-02-18T04:08:30;9.10;81.60
3850;DHT22;1940;51.052;13.678;2023-02-18T04:10:56;9.10;81.60
3850;DHT22;1940;51.052;13.678;2023-02-18T04:13:21;9.00;82.00
3850;DHT22;1940;51.052;13.678;2023-02-18T04:15:49;9.10;82.00
3850;DHT22;1940;51.052;13.678;2023-02-18T04:18:15;9.00;82.40
3850;DHT22;1940;51.052;13.678;2023-02-18T04:20:40;9.00;82.60
3850;DHT22;1940;51.052;13.678;2023-02-18T04:23:06;9.10;82.50
3850;DHT22;1940;51.052;13.678;2023-02-18T04:25:32;9.10;82.40
3850;DHT22;1940;51.052;13.678;2023-02-18T04:27:57;9.10;82.60
3850;DHT22;1940;51.052;13.678;2023-02-18T04:30:23;9.10;82.90
3850;DHT22;1940;51.052;13.678;2023-02-18T04:32:48;9.10;83.60
3850;DHT22;1940;51.052;13.678;2023-02-18T04:35:14;9.10;84.30
3850;DHT22;1940;51.052;13.678;2023-02-18T04:37:40;9.00;85.10
3850;DHT22;1940;51.052;13.678;2023-02-18T04:40:06;9.00;85.30
3850;DHT22;1940;51.052;13.678;2023-02-18T04:42:32;9.00;85.30
3850;DHT22;1940;51.052;13.678;2023-02-18T04:44:57;9.00;85.30
3850;DHT22;1940;51.052;13.678;2023-02-18T04:47:23;9.00;85.20
3850;DHT22;1940;51.052;13.678;2023-02-18T04:49:48;8.90;84.90
3850;DHT22;1940;51.052;13.678;2023-02-18T04:52:14;9.00;84.50
3850;DHT22;1940;51.052;13.678;2023-02-18T04:54:39;9.00;83.90
3850;DHT22;1940;51.052;13.678;2023-02-18T04:57:05;9.00;83.70
3850;DHT22;1940;51.052;13.678;2023-02-18T04:59:31;9.10;83.10
3850;DHT22;1940;51.052;13.678;2023-02-18T05:01:56;9.10;82.90
3850;DHT22;1940;51.052;13.678;2023-02-18T05:04:22;9.10;82.70
3850;DHT22;1940;51.052;13.678;2023-02-18T05:06:47;9.10;82.80
3850;DHT22;1940;51.052;13.678;2023-02-18T05:09:13;9.10;82.90
3850;DHT22;1940;51.052;13.678;2023-02-18T05:11:39;9.10;83.00
3850;DHT22;1940;51.052;13.678;2023-02-18T05:14:05;9.10;83.00
3850;DHT22;1940;51.052;13.678;2023-02-18T05:16:30;9.20;83.00
3850;DHT22;1940;51.052;13.678;2023-02-18T05:18:56;9.10;83.50
3850;DHT22;1940;51.052;13.678;2023-02-18T05:21:21;9.10;83.70
3850;DHT22;1940;51.052;13.678;2023-02-18T05:23:47;9.10;83.80
3850;DHT22;1940;51.052;13.678;2023-02-18T05:26:12;9.10;84.00
3850;DHT22;1940;51.052;13.678;2023-02-18T05:28:38;9.10;84.10
3850;DHT22;1940;51.052;13.678;2023-02-18T05:31:03;9.00;84.30
3850;DHT22;1940;51.052;13.678;2023-02-18T05:33:29;9.00;84.60
3850;DHT22;1940;51.052;13.678;2023-02-18T05:35:54;9.00;84.90
3850;DHT22;1940;51.052;13.678;2023-02-18T05:38:20;9.00;85.20
3850;DHT22;1940;51.052;13.678;2023-02-18T05:40:45;9.00;85.60
3850;DHT22;1940;51.052;13.678;2023-02-18T05:43:12;9.00;85.60
3850;DHT22;1940;51.052;13.678;2023-02-18T05:45:38;9.10;86.00
3850;DHT22;1940;51.052;13.678;2023-02-18T05:48:04;9.00;86.60
3850;DHT22;1940;51.052;13.678;2023-02-18T05:50:29;9.10;87.00
3850;DHT22;1940;51.052;13.678;2023-02-18T05:52:55;9.10;87.20
3850;DHT22;1940;51.052;13.678;2023-02-18T05:55:20;9.10;87.90
3850;DHT22;1940;51.052;13.678;2023-02-18T05:57:46;9.10;88.30
3850;DHT22;1940;51.052;13.678;2023-02-18T06:00:12;9.20;88.30
3850;DHT22;1940;51.052;13.678;2023-02-18T06:02:38;9.10;88.70
3850;DHT22;1940;51.052;13.678;2023-02-18T06:05:04;9.10;89.20
3850;DHT22;1940;51.052;13.678;2023-02-18T06:07:30;9.10;89.20
3850;DHT22;1940;51.052;13.678;2023-02-18T06:09:56;9.10;89.60
3850;DHT22;1940;51.052;13.678;2023-02-18T06:12:21;9.20;89.70
3850;DHT22;1940;51.052;13.678;2023-02-18T06:14:47;9.20;90.00
3850;DHT22;1940;51.052;13.678;2023-02-18T06:17:14;9.20;90.50
3850;DHT22;1940;51.052;13.678;2023-02-18T06:19:39;9.20;90.90
3850;DHT22;1940;51.052;13.678;2023-02-18T06:22:06;9.10;91.50
3850;DHT22;1940;51.052;13.678;2023-02-18T06:24:32;9.10;92.10
3850;DHT22;1940;51.052;13.678;2023-02-18T06:26:57;9.10;92.40
3850;DHT22;1940;51.052;13.678;2023-02-18T06:29:23;9.10;92.60
3850;DHT22;1940;51.052;13.678;2023-02-18T06:31:49;9.10;93.00
3850;DHT22;1940;51.052;13.678;2023-02-18T06:34:15;9.00;93.60
3850;DHT22;1940;51.052;13.678;2023-02-18T06:36:40;9.00;93.90
3850;DHT22;1940;51.052;13.678;2023-02-18T06:39:06;9.00;94.10
3850;DHT22;1940;51.052;13.678;2023-02-18T06:41:33;9.00;94.20
3850;DHT22;1940;51.052;13.678;2023-02-18T06:43:58;9.00;94.20
3850;DHT22;1940;51.052;13.678;2023-02-18T06:46:24;9.00;94.70
3850;DHT22;1940;51.052;13.678;2023-02-18T06:48:49;9.00;94.80
3850;DHT22;1940;51.052;13.678;2023-02-18T06:51:16;9.00;95.10
3850;DHT22;1940;51.052;13.678;2023-02-18T06:53:44;8.90;95.10
3850;DHT22;1940;51.052;13.678;2023-02-18T06:56:10;8.90;95.20
3850;DHT22;1940;51.052;13.678;2023-02-18T06:58:35;8.80;95.20
3850;DHT22;1940;51.052;13.678;2023-02-18T07:01:01;8.70;95.20
3850;DHT22;1940;51.052;13.678;2023-02-18T07:03:27;8.60;95.20
3850;DHT22;1940;51.052;13.678;2023-02-18T07:05:53;8.60;95.20
3850;DHT22;1940;51.052;13.678;2023-02-18T07:08:18;8.60;95.20
3850;DHT22;1940;51.052;13.678;2023-02-18T07:10:44;8.60;95.20
3850;DHT22;1940;51.052;13.678;2023-02-18T07:13:10;8.50;95.20
3850;DHT22;1940;51.052;13.678;2023-02-18T07:15:35;8.50;95.20
3850;DHT22;1940;51.052;13.678;2023-02-18T07:18:01;8.60;95.20
3850;DHT22;1940;51.052;13.678;2023-02-18T07:20:26;8.50;95.20
3850;DHT22;1940;51.052;13.678;2023-02-18T07:22:52;8.60;95.20
3850;DHT22;1940;51.052;13.678;2023-02-18T07:25:18;8.60;95.20
3850;DHT22;1940;51.052;13.678;2023-02-18T07:27:44;8.60;95.20
3850;DHT22;1940;51.052;13.678;2023-02-18T07:30:10;8.60;95.20
3850;DHT22;1940;51.052;13.678;2023-02-18T07:32:36;8.60;95.20
3850;DHT22;1940;51.052;13.678;2023-02-18T07:35:03;8.70;95.20
3850;DHT22;1940;51.052;13.678;2023-02-18T07:37:28;8.60;95.20
3850;DHT22;1940;51.052;13.678;2023-02-18T07:39:54;8.50;95.20
3850;DHT22;1940;51.052;13.678;2023-02-18T07:42:19;8.50;95.20
3850;DHT22;1940;51.052;13.678;2023-02-18T07:44:45;8.50;95.20
3850;DHT22;1940;51.052;13.678;2023-02-18T07:47:13;8.50;95.20
3850;DHT22;1940;51.052;13.678;2023-02-18T07:49:39;8.50;95.20
3850;DHT22;1940;51.052;13.678;2023-02-18T07:52:05;8.60;95.20
3850;DHT22;1940;51.052;13.678;2023-02-18T07:54:31;8.60;95.20
3850;DHT22;1940;51.052;13.678;2023-02-18T07:56:56;8.60;95.20
3850;DHT22;1940;51.052;13.678;2023-02-18T07:59:22;8.60;95.20
3850;DHT22;1940;51.052;13.678;2023-02-18T08:01:47;8.70;95.20
3850;DHT22;1940;51.052;13.678;2023-02-18T08:04:13;8.70;95.20
3850;DHT22;1940;51.052;13.678;2023-02-18T08:06:42;8.70;95.20
3850;DHT22;1940;51.052;13.678;2023-02-18T08:09:08;8.70;95.20
3850;DHT22;1940;51.052;13.678;2023-02-18T08:11:34;8.80;95.20
3850;DHT22;1940;51.052;13.678;2023-02-18T08:14:00;8.80;95.20
3850;DHT22;1940;51.052;13.678;2023-02-18T08:16:26;8.80;95.20
3850;DHT22;1940;51.052;13.678;2023-02-18T08:18:52;8.90;95.20
3850;DHT22;1940;51.052;13.678;2023-02-18T08:21:18;8.90;95.20
3850;DHT22;1940;51.052;13.678;2023-02-18T08:23:44;9.00;95.20
3850;DHT22;1940;51.052;13.678;2023-02-18T08:26:10;9.10;95.20
3850;DHT22;1940;51.052;13.678;2023-02-18T08:28:36;9.10;95.20
3850;DHT22;1940;51.052;13.678;2023-02-18T08:31:01;9.20;95.20
3850;DHT22;1940;51.052;13.678;2023-02-18T08:33:27;9.20;95.20
3850;DHT22;1940;51.052;13.678;2023-02-18T08:35:53;9.30;95.20
3850;DHT22;1940;51.052;13.678;2023-02-18T08:38:20;9.40;95.20
3850;DHT22;1940;51.052;13.678;2023-02-18T08:40:47;9.40;95.20
3850;DHT22;1940;51.052;13.678;2023-02-18T08:43:13;9.40;95.20
3850;DHT22;1940;51.052;13.678;2023-02-18T08:45:39;9.30;95.20
3850;DHT22;1940;51.052;13.678;2023-02-18T08:48:06;9.40;95.20
3850;DHT22;1940;51.052;13.678;2023-02-18T08:50:33;9.30;95.20
3850;DHT22;1940;51.052;13.678;2023-02-18T08:52:58;9.30;95.20
3850;DHT22;1940;51.052;13.678;2023-02-18T08:55:30;9.30;95.20
3850;DHT22;1940;51.052;13.678;2023-02-18T08:57:56;9.40;95.20
3850;DHT22;1940;51.052;13.678;2023-02-18T09:00:22;9.40;95.20
3850;DHT22;1940;51.052;13.678;2023-02-18T09:02:48;9.40;95.20
3850;DHT22;1940;51.052;13.678;2023-02-18T09:05:14;9.50;95.20
3850;DHT22;1940;51.052;13.678;2023-02-18T09:07:40;9.50;95.20
3850;DHT22;1940;51.052;13.678;2023-02-18T09:10:07;9.50;95.20
3850;DHT22;1940;51.052;13.678;2023-02-18T09:12:33;9.50;95.20
3850;DHT22;1940;51.052;13.678;2023-02-18T09:14:59;9.50;95.20
3850;DHT22;1940;51.052;13.678;2023-02-18T09:17:25;9.40;95.20
3850;DHT22;1940;51.052;13.678;2023-02-18T09:19:51;9.40;95.20
3850;DHT22;1940;51.052;13.678;2023-02-18T09:22:17;9.50;95.20
3850;DHT22;1940;51.052;13.678;2023-02-18T09:24:42;9.50;95.20
3850;DHT22;1940;51.052;13.678;2023-02-18T09:27:08;9.60;95.20
3850;DHT22;1940;51.052;13.678;2023-02-18T09:29:38;9.60;95.20
3850;DHT22;1940;51.052;13.678;2023-02-18T09:32:04;9.60;95.20
3850;DHT22;1940;51.052;13.678;2023-02-18T09:34:30;9.70;95.20
3850;DHT22;1940;51.052;13.678;2023-02-18T09:36:56;9.80;95.20
3850;DHT22;1940;51.052;13.678;2023-02-18T09:39:21;10.00;95.20
3850;DHT22;1940;51.052;13.678;2023-02-18T09:42:00;10.20;94.70
3850;DHT22;1940;51.052;13.678;2023-02-18T09:44:39;10.40;94.60
3850;DHT22;1940;51.052;13.678;2023-02-18T09:47:20;10.70;92.80
3850;DHT22;1940;51.052;13.678;2023-02-18T09:49:55;11.00;91.80
3850;DHT22;1940;51.052;13.678;2023-02-18T09:52:25;11.20;90.60
3850;DHT22;1940;51.052;13.678;2023-02-18T09:54:52;11.30;91.00
3850;DHT22;1940;51.052;13.678;2023-02-18T09:57:29;11.30;90.80
3850;DHT22;1940;51.052;13.678;2023-02-18T09:59:59;11.40;91.00
3850;DHT22;1940;51.052;13.678;2023-02-18T10:02:26;11.50;90.60
3850;DHT22;1940;51.052;13.678;2023-02-18T10:04:52;11.50;90.80
3850;DHT22;1940;51.052;13.678;2023-02-18T10:07:30;11.50;90.30
3850;DHT22;1940;51.052;13.678;2023-02-18T10:10:00;11.50;90.30
3850;DHT22;1940;51.052;13.678;2023-02-18T10:12:28;11.50;91.10
3850;DHT22;1940;51.052;13.678;2023-02-18T10:14:57;11.30;91.70
3850;DHT22;1940;51.052;13.678;2023-02-18T10:17:26;11.30;92.20
3850;DHT22;1940;51.052;13.678;2023-02-18T10:19:53;11.30;92.50
3850;DHT22;1940;51.052;13.678;2023-02-18T10:22:21;11.20;93.10
3850;DHT22;1940;51.052;13.678;2023-02-18T10:24:53;11.20;93.10
3850;DHT22;1940;51.052;13.678;2023-02-18T10:27:28;11.20;93.20
3850;DHT22;1940;51.052;13.678;2023-02-18T10:35:52;11.40;92.80
3850;DHT22;1940;51.052;13.678;2023-02-18T10:44:08;11.60;92.70
3850;DHT22;1940;51.052;13.678;2023-02-18T10:46:46;11.70;92.50
3850;DHT22;1940;51.052;13.678;2023-02-18T10:51:54;11.70;92.40
3850;DHT22;1940;51.052;13.678;2023-02-18T10:54:26;11.90;92.00
3850;DHT22;1940;51.052;13.678;2023-02-18T10:57:20;11.90;91.80
3850;DHT22;1940;51.052;13.678;2023-02-18T11:02:27;12.10;91.20
3850;DHT22;1940;51.052;13.678;2023-02-18T11:04:56;12.10;90.70
3850;DHT22;1940;51.052;13.678;2023-02-18T11:07:28;12.20;90.30
3850;DHT22;1940;51.052;13.678;2023-02-18T11:09:57;12.30;89.50
3850;DHT22;1940;51.052;13.678;2023-02-18T11:12:28;12.30;89.60
3850;DHT22;1940;51.052;13.678;2023-02-18T11:17:34;12.60;89.10
3850;DHT22;1940;51.052;13.678;2023-02-18T11:22:49;12.80;87.30
3850;DHT22;1940;51.052;13.678;2023-02-18T11:25:22;12.80;86.60
3850;DHT22;1940;51.052;13.678;2023-02-18T11:27:55;12.80;86.00
3850;DHT22;1940;51.052;13.678;2023-02-18T11:30:29;12.80;85.90
3850;DHT22;1940;51.052;13.678;2023-02-18T11:33:08;12.90;86.30
3850;DHT22;1940;51.052;13.678;2023-02-18T11:35:35;12.90;85.50
3850;DHT22;1940;51.052;13.678;2023-02-18T11:38:20;12.90;85.20
3850;DHT22;1940;51.052;13.678;2023-02-18T11:40:57;12.90;84.50
3850;DHT22;1940;51.052;13.678;2023-02-18T11:43:29;13.00;84.20
3850;DHT22;1940;51.052;13.678;2023-02-18T11:46:28;13.10;84.40
3850;DHT22;1940;51.052;13.678;2023-02-18T11:48:54;13.10;83.80
3850;DHT22;1940;51.052;13.678;2023-02-18T11:51:32;13.00;83.30
3850;DHT22;1940;51.052;13.678;2023-02-18T11:54:04;13.00;83.50
3850;DHT22;1940;51.052;13.678;2023-02-18T11:56:35;13.00;83.90
3850;DHT22;1940;51.052;13.678;2023-02-18T11:59:03;12.90;84.40
3850;DHT22;1940;51.052;13.678;2023-02-18T12:04:09;12.70;85.60
3850;DHT22;1940;51.052;13.678;2023-02-18T12:06:52;12.60;85.40
3850;DHT22;1940;51.052;13.678;2023-02-18T12:09:29;12.60;86.10
3850;DHT22;1940;51.052;13.678;2023-02-18T12:12:05;12.50;86.40
3850;DHT22;1940;51.052;13.678;2023-02-18T12:14:35;12.40;86.70
3850;DHT22;1940;51.052;13.678;2023-02-18T12:17:23;12.40;87.20
3850;DHT22;1940;51.052;13.678;2023-02-18T12:28:43;12.20;87.70
3850;DHT22;1940;51.052;13.678;2023-02-18T12:34:37;12.30;87.20
3850;DHT22;1940;51.052;13.678;2023-02-18T12:42:58;12.30;86.20
3850;DHT22;1940;51.052;13.678;2023-02-18T12:53:46;11.90;89.10
3850;DHT22;1940;51.052;13.678;2023-02-18T13:05:25;11.80;89.20
3850;DHT22;1940;51.052;13.678;2023-02-18T13:13:10;11.80;87.30
3850;DHT22;1940;51.052;13.678;2023-02-18T13:15:41;11.70;86.80
3850;DHT22;1940;51.052;13.678;2023-02-18T13:18:11;11.70;86.80
3850;DHT22;1940;51.052;13.678;2023-02-18T13:20:42;11.80;85.40
3850;DHT22;1940;51.052;13.678;2023-02-18T13:23:20;11.80;84.60
3850;DHT22;1940;51.052;13.678;2023-02-18T13:25:50;11.90;84.00
3850;DHT22;1940;51.052;13.678;2023-02-18T13:28:34;12.00;83.70
3850;DHT22;1940;51.052;13.678;2023-02-18T13:34:08;12.10;82.10
3850;DHT22;1940;51.052;13.678;2023-02-18T13:39:48;11.90;83.00
3850;DHT22;1940;51.052;13.678;2023-02-18T13:47:45;11.40;85.60
3850;DHT22;1940;51.052;13.678;2023-02-18T13:53:11;11.20;85.40
3850;DHT22;1940;51.052;13.678;2023-02-18T13:58:15;11.30;85.00
3850;DHT22;1940;51.052;13.678;2023-02-18T14:00:49;11.30;84.40
3850;DHT22;1940;51.052;13.678;2023-02-18T14:03:33;11.30;84.20
3850;DHT22;1940;51.052;13.678;2023-02-18T14:06:00;11.30;83.60
3850;DHT22;1940;51.052;13.678;2023-02-18T14:08:34;11.40;83.60
3850;DHT22;1940;51.052;13.678;2023-02-18T14:13:40;11.30;83.30
3850;DHT22;1940;51.052;13.678;2023-02-18T14:16:07;11.40;82.60
3850;DHT22;1940;51.052;13.678;2023-02-18T14:18:57;11.40;82.70
3850;DHT22;1940;51.052;13.678;2023-02-18T14:21:41;11.40;82.60
3850;DHT22;1940;51.052;13.678;2023-02-18T14:24:09;11.30;82.80
3850;DHT22;1940;51.052;13.678;2023-02-18T14:26:42;11.20;83.00
3850;DHT22;1940;51.052;13.678;2023-02-18T14:29:17;11.20;83.50
3850;DHT22;1940;51.052;13.678;2023-02-18T14:31:55;11.20;83.20
3850;DHT22;1940;51.052;13.678;2023-02-18T14:34:49;11.20;83.10
3850;DHT22;1940;51.052;13.678;2023-02-18T14:37:27;11.20;83.00
3850;DHT22;1940;51.052;13.678;2023-02-18T14:40:15;11.20;82.70
3850;DHT22;1940;51.052;13.678;2023-02-18T14:42:59;11.20;82.50
3850;DHT22;1940;51.052;13.678;2023-02-18T14:45:30;11.20;82.70
3850;DHT22;1940;51.052;13.678;2023-02-18T14:50:34;11.20;82.60
3850;DHT22;1940;51.052;13.678;2023-02-18T14:53:07;11.10;82.40
3850;DHT22;1940;51.052;13.678;2023-02-18T14:55:40;11.20;82.30
3850;DHT22;1940;51.052;13.678;2023-02-18T14:58:29;11.20;82.20
3850;DHT22;1940;51.052;13.678;2023-02-18T15:00:55;11.20;82.90
3850;DHT22;1940;51.052;13.678;2023-02-18T15:03:21;11.10;83.20
3850;DHT22;1940;51.052;13.678;2023-02-18T15:05:49;11.10;85.00
3850;DHT22;1940;51.052;13.678;2023-02-18T15:08:22;11.00;85.40
3850;DHT22;1940;51.052;13.678;2023-02-18T15:10:58;10.80;86.70
3850;DHT22;1940;51.052;13.678;2023-02-18T15:13:28;10.70;87.20
3850;DHT22;1940;51.052;13.678;2023-02-18T15:16:07;10.60;88.10
3850;DHT22;1940;51.052;13.678;2023-02-18T15:18:37;10.60;88.70
3850;DHT22;1940;51.052;13.678;2023-02-18T15:21:06;10.40;88.80
3850;DHT22;1940;51.052;13.678;2023-02-18T15:23:37;10.50;89.00
3850;DHT22;1940;51.052;13.678;2023-02-18T15:26:05;10.50;88.60
3850;DHT22;1940;51.052;13.678;2023-02-18T15:28:37;10.50;87.50
3850;DHT22;1940;51.052;13.678;2023-02-18T15:31:10;10.60;87.40
3850;DHT22;1940;51.052;13.678;2023-02-18T15:33:42;10.60;86.40
3850;DHT22;1940;51.052;13.678;2023-02-18T15:36:12;10.70;84.80
3850;DHT22;1940;51.052;13.678;2023-02-18T15:38:39;10.80;84.40
3850;DHT22;1940;51.052;13.678;2023-02-18T15:41:10;10.80;84.30
3850;DHT22;1940;51.052;13.678;2023-02-18T15:43:37;10.90;83.40
3850;DHT22;1940;51.052;13.678;2023-02-18T15:46:10;11.00;83.70
3850;DHT22;1940;51.052;13.678;2023-02-18T15:48:45;10.90;83.50
3850;DHT22;1940;51.052;13.678;2023-02-18T15:51:16;11.00;83.00
3850;DHT22;1940;51.052;13.678;2023-02-18T15:53:45;11.00;83.30
3850;DHT22;1940;51.052;13.678;2023-02-18T15:56:40;11.00;83.00
3850;DHT22;1940;51.052;13.678;2023-02-18T16:01:55;11.10;82.50
3850;DHT22;1940;51.052;13.678;2023-02-18T16:04:23;11.10;82.40
3850;DHT22;1940;51.052;13.678;2023-02-18T16:06:53;11.10;82.20
3850;DHT22;1940;51.052;13.678;2023-02-18T16:09:26;11.10;82.20
3850;DHT22;1940;51.052;13.678;2023-02-18T16:11:55;11.10;82.50
3850;DHT22;1940;51.052;13.678;2023-02-18T16:14:44;11.00;83.20
3850;DHT22;1940;51.052;13.678;2023-02-18T16:30:20;10.90;83.40
3850;DHT22;1940;51.052;13.678;2023-02-18T16:32:46;10.90;83.50
3850;DHT22;1940;51.052;13.678;2023-02-18T16:35:12;10.90;83.30
3850;DHT22;1940;51.052;13.678;2023-02-18T16:37:38;10.90;83.20
3850;DHT22;1940;51.052;13.678;2023-02-18T16:42:54;10.90;83.10
3850;DHT22;1940;51.052;13.678;2023-02-18T16:45:25;11.00;83.30
3850;DHT22;1940;51.052;13.678;2023-02-18T16:47:55;10.90;83.40
3850;DHT22;1940;51.052;13.678;2023-02-18T16:50:21;10.90;83.00
3850;DHT22;1940;51.052;13.678;2023-02-18T16:52:47;10.90;83.00
3850;DHT22;1940;51.052;13.678;2023-02-18T16:55:17;10.90;82.90
3850;DHT22;1940;51.052;13.678;2023-02-18T16:57:45;11.00;82.80
3850;DHT22;1940;51.052;13.678;2023-02-18T17:00:11;11.00;83.00
3850;DHT22;1940;51.052;13.678;2023-02-18T17:02:37;10.90;82.90
3850;DHT22;1940;51.052;13.678;2023-02-18T17:05:03;11.00;82.30
3850;DHT22;1940;51.052;13.678;2023-02-18T17:07:28;11.00;82.60
3850;DHT22;1940;51.052;13.678;2023-02-18T17:10:00;11.00;82.70
3850;DHT22;1940;51.052;13.678;2023-02-18T17:12:25;11.00;82.90
3850;DHT22;1940;51.052;13.678;2023-02-18T17:14:51;10.90;83.80
3850;DHT22;1940;51.052;13.678;2023-02-18T17:17:17;10.90;84.60
3850;DHT22;1940;51.052;13.678;2023-02-18T17:19:49;10.80;84.80
3850;DHT22;1940;51.052;13.678;2023-02-18T17:22:15;10.80;84.70
3850;DHT22;1940;51.052;13.678;2023-02-18T17:24:41;10.80;84.70
3850;DHT22;1940;51.052;13.678;2023-02-18T17:27:08;10.70;85.10
3850;DHT22;1940;51.052;13.678;2023-02-18T17:29:35;10.70;86.00
3850;DHT22;1940;51.052;13.678;2023-02-18T17:32:01;10.70;86.00
3850;DHT22;1940;51.052;13.678;2023-02-18T17:34:28;10.50;86.70
3850;DHT22;1940;51.052;13.678;2023-02-18T17:36:55;10.50;86.80
3850;DHT22;1940;51.052;13.678;2023-02-18T17:39:20;10.40;87.30
3850;DHT22;1940;51.052;13.678;2023-02-18T17:41:46;10.40;88.00
3850;DHT22;1940;51.052;13.678;2023-02-18T17:44:14;10.40;88.10
3850;DHT22;1940;51.052;13.678;2023-02-18T17:46:40;10.30;87.90
3850;DHT22;1940;51.052;13.678;2023-02-18T17:49:06;10.30;87.70
3850;DHT22;1940;51.052;13.678;2023-02-18T17:51:31;10.30;87.70
3850;DHT22;1940;51.052;13.678;2023-02-18T17:53:59;10.30;87.30
3850;DHT22;1940;51.052;13.678;2023-02-18T17:56:24;10.40;86.80
3850;DHT22;1940;51.052;13.678;2023-02-18T17:58:50;10.50;86.40
3850;DHT22;1940;51.052;13.678;2023-02-18T18:01:15;10.50;86.30
3850;DHT22;1940;51.052;13.678;2023-02-18T18:03:43;10.60;86.70
3850;DHT22;1940;51.052;13.678;2023-02-18T18:06:18;10.50;87.20
3850;DHT22;1940;51.052;13.678;2023-02-18T18:08:45;10.50;86.20
3850;DHT22;1940;51.052;13.678;2023-02-18T18:11:23;10.50;86.30
3850;DHT22;1940;51.052;13.678;2023-02-18T18:13:50;10.60;85.50
3850;DHT22;1940;51.052;13.678;2023-02-18T18:16:17;10.60;84.70